Pagrindinis puslapis
METAR-TAF:

METAR-TAF

Oro uostai :

Odessa-Schlemeyer Field

Odessa, Teksasas, Jungtinės Amerikos Valstijos

platuma: 31-55-17N, ilguma: 102-23-30W, Aukštis: 914 m

Dabartinis oras

Ataskaita buvo paskelbta 39 minutes, ne 09:53 UTC
Vėjas 12 kt iš Šiaurės/Šiaurės Vakarų
Temperatūra 12°C
Drėgmė 26%
Slėgis 1019 hPa
Matomumas: 16.1 km
Giedras dangus

METAR: KODO 310953Z AUTO 34012KT 10SM CLR 12/M07 A3008 RMK AO2 SLP152 T01171067

Laikas: 05:32 (10:32 UTC)


TAF: trūkstamas

Orai ataskaitas ir orų prognozės (METAR, TAF).

turimą stotys yra geltonos ir raudonos taškus žemėlapyje.

Perkelti pele per norėdami pamatyti stoties vardą.

Tada spustelėkite, norėdami matyti oro stebėjimo ir prognozės.

Norėdami pakeisti žemėlapį: spustelėkite ant žalios mygtukų su juodo kryžiaus žemyn,; žalią mygtuką su brūkšneliu, jei norite nutolinti; arba žalių rodyklių gretimoms žemėlapius.


METAR-TAF: